• Join FlightAware (Why Join?)
  • Login
  • US Flag 
07:34AM EDT


 

Airport Tracker/Info


-or-


 

Live Flight TrackerFlight Track Log ✈ XOJ549 ✈ 02-Jul-2013 ✈ KJFK - TQPF / AXA

Flight Track Log - Related Links

Times and Time Zones

All times are in EDT time to prevent confusion due to time zone crossing. See the XOJ549 flight status page for this flight to view local times or setup timezone preferences in your user account.

Time Position Orientation Groundspeed Altitude Reporting Facility
EDT Latitude Longitude Course Direction KTS MPH feet Rate Location/Type
10:29AM 40.6000 -73.8000 119° Southeast 185 213 3,400  Level New York TRACON
10:31AM 40.5508 -73.6828 119° Southeast 258 297 10,500 3,600 Climbing New York Center
10:32AM 40.5092 -73.5964 122° Southeast 265 305 13,700 2,880 Climbing New York Center
10:33AM 40.4653 -73.5100 124° Southeast 294 338 16,400 2,520 Climbing New York Center
10:34AM 40.4175 -73.4181 124° Southeast 333 383 18,700 2,520 Climbing New York Center
10:35AM 40.3575 -73.3042 125° Southeast 338 389 21,500 2,160 Climbing New York Center
10:36AM 40.2992 -73.2011 127° Southeast 343 395 23,200 1,680 Climbing New York Center
10:37AM 40.2389 -73.0986 128° Southeast 349 402 25,000 2,040 Climbing New York Center
10:38AM 40.1642 -72.9711 127° Southeast 380 437 27,300 1,920 Climbing New York Center
10:39AM 40.0953 -72.8575 128° Southeast 394 453 28,900 1,440 Climbing New York Center
10:40AM 40.0206 -72.7306 128° Southeast 417 480 30,300 1,620 Climbing New York Center
10:41AM 39.9389 -72.6200 134° Southeast 423 487 32,200 1,680 Climbing New York Center
10:42AM 39.8531 -72.5122 136° Southeast 429 494 33,700 1,560 Climbing New York Center
10:43AM 39.7653 -72.3911 133° Southeast 444 511 35,300 1,800 Climbing New York Center
10:44AM 39.6769 -72.2839 137° Southeast 444 511 37,400 2,040 Climbing New York Center
10:45AM 39.5950 -72.1772 135° Southeast 444 511 39,500 1,620 Climbing New York Center
10:46AM 39.5128 -72.0733 136° Southeast 425 489 40,700 720 Climbing New York Center
10:47AM 39.4286 -71.9667 136° Southeast 420 483 41,000 120 Climbing New York Center
10:48AM 39.3422 -71.8553 135° Southeast 425 489 41,000  Level New York Center
10:49AM 39.2556 -71.7411 134° Southeast 431 496 41,000  Level New York Center
10:50AM 39.1667 -71.6383 138° Southeast 431 496 41,000  Level New York Center
10:51AM 39.0800 -71.5300 136° Southeast 431 496 41,000  Level New York Center
10:52AM 38.9931 -71.4197 135° Southeast 431 496 41,000  Level New York Center
10:53AM 38.9061 -71.3094 135° Southeast 431 496 41,000  Level New York Center
10:54AM 38.8192 -71.2019 136° Southeast 431 496 41,000  Level New York Center
10:55AM 38.7278 -71.0950 138° Southeast 436 502 41,000  Level New York Center
10:56AM 38.6425 -70.9828 134° Southeast 436 502 41,000  Level New York Center
10:57AM 38.5489 -70.8764 138° Southeast 441 507 41,000  Level New York Center
10:58AM 38.4656 -70.7622 133° Southeast 441 507 41,000  Level New York Center
10:59AM 38.3717 -70.6642 141° Southeast 441 507 41,000  Level New York Center
11:00AM 38.2819 -70.5556 136° Southeast 441 507 41,000  Level New York Center
11:01AM 38.1942 -70.4475 136° Southeast 436 502 41,000  Level New York Center
11:02AM 38.1103 -70.3369 134° Southeast 436 502 41,000  Level New York Center
11:03AM 38.0225 -70.2319 137° Southeast 436 502 41,000  Level New York Center
11:03AM 38.1333 -70.3667 133° Southeast 430 495 41,000  Level New York Oceanic (ODAPS)
11:11AM 37.3133 -69.2593 133° Southeast 430 495 41,000  Level FlightAware Transoceanic
11:12AM 37.2308 -69.1499 134° Southeast 430 495 41,000  Level FlightAware Transoceanic
11:13AM 37.1481 -69.0408 134° Southeast 430 495 41,000  Level FlightAware Transoceanic
11:14AM 37.0653 -68.9319 134° Southeast 430 495 41,000  Level FlightAware Transoceanic
11:15AM 36.9825 -68.8232 134° Southeast 430 495 41,000  Level FlightAware Transoceanic
11:16AM 36.8995 -68.7148 134° Southeast 430 495 41,000  Level FlightAware Transoceanic
11:17AM 36.8164 -68.6066 134° Southeast 430 495 41,000  Level FlightAware Transoceanic
11:18AM 36.7333 -68.4986 134° Southeast 430 495 41,000  Level FlightAware Transoceanic
11:19AM 36.6500 -68.3908 134° Southeast 430 495 41,000  Level FlightAware Transoceanic
11:20AM 36.5667 -68.2833 142° Southeast 430 495 41,000  Level FlightAware Transoceanic
11:21AM 36.4728 -68.1917 142° Southeast 430 495 41,000  Level FlightAware Transoceanic
11:22AM 36.3789 -68.1003 142° Southeast 430 495 41,000  Level FlightAware Transoceanic
11:23AM 36.2849 -68.0090 142° Southeast 430 495 41,000  Level FlightAware Transoceanic
11:23AM 36.5667 -68.2833 142° Southeast 429 494 41,000  Level New York Oceanic (ODAPS)
11:24AM 36.1908 -67.9181 142° Southeast 430 495 41,000  Level FlightAware Transoceanic
11:25AM 36.0966 -67.8273 142° Southeast 430 495 41,000  Level FlightAware Transoceanic
11:26AM 36.0024 -67.7367 142° Southeast 430 495 41,000  Level FlightAware Transoceanic
11:27AM 35.9081 -67.6464 142° Southeast 430 495 41,000  Level FlightAware Transoceanic
11:28AM 35.8138 -67.5563 142° Southeast 430 495 41,000  Level FlightAware Transoceanic
11:29AM 35.7194 -67.4664 142° Southeast 429 494 41,000  Level FlightAware Transoceanic
11:30AM 35.6249 -67.3767 142° Southeast 429 494 41,000  Level FlightAware Transoceanic
11:31AM 35.5303 -67.2872 142° Southeast 429 494 41,000  Level FlightAware Transoceanic
11:32AM 35.4357 -67.1979 142° Southeast 429 494 41,000  Level FlightAware Transoceanic
11:33AM 35.3410 -67.1089 143° Southeast 429 494 41,000  Level FlightAware Transoceanic
11:34AM 35.2463 -67.0200 143° Southeast 429 494 41,000  Level FlightAware Transoceanic
11:35AM 35.1515 -66.9314 143° Southeast 429 494 41,000  Level FlightAware Transoceanic
11:36AM 35.0566 -66.8429 143° Southeast 429 494 41,000  Level FlightAware Transoceanic
11:37AM 34.9617 -66.7547 143° Southeast 429 494 41,000  Level FlightAware Transoceanic
11:38AM 34.8667 -66.6667 169° South 429 494 41,000  Level FlightAware Transoceanic
11:39AM 34.7430 -66.6365 169° South 429 494 41,000  Level FlightAware Transoceanic
11:39AM 34.8667 -66.6667 169° South 443 510 41,000  Level New York Oceanic (ODAPS)
11:40AM 34.6192 -66.6064 169° South 429 494 41,000  Level FlightAware Transoceanic
11:41AM 34.4955 -66.5765 169° South 429 494 41,000  Level FlightAware Transoceanic
11:42AM 34.3717 -66.5466 169° South 429 494 41,000  Level FlightAware Transoceanic
11:43AM 34.2480 -66.5168 169° South 429 494 41,000  Level FlightAware Transoceanic
11:44AM 34.1242 -66.4871 169° South 429 494 41,000  Level FlightAware Transoceanic
11:45AM 34.0005 -66.4574 169° South 429 494 41,000  Level FlightAware Transoceanic
11:46AM 33.7777 -66.4043 169° South 443 510 41,000  Level FlightAware Transoceanic
11:47AM 33.6567 -66.3756 169° South 443 510 41,000  Level FlightAware Transoceanic
11:48AM 33.5356 -66.3469 169° South 443 510 41,000  Level FlightAware Transoceanic
11:49AM 33.4146 -66.3183 169° South 443 510 41,000  Level FlightAware Transoceanic
11:50AM 33.2935 -66.2898 169° South 443 510 41,000  Level FlightAware Transoceanic
11:51AM 33.1725 -66.2614 169° South 443 510 41,000  Level FlightAware Transoceanic
11:52AM 33.0514 -66.2331 169° South 443 510 41,000  Level FlightAware Transoceanic
11:53AM 32.9303 -66.2048 169° South 443 510 41,000  Level FlightAware Transoceanic
11:54AM 32.8092 -66.1766 169° South 443 510 41,000  Level FlightAware Transoceanic
11:55AM 32.6882 -66.1485 169° South 443 510 41,000  Level FlightAware Transoceanic
11:56AM 32.5671 -66.1205 169° South 443 510 41,000  Level FlightAware Transoceanic
11:57AM 32.4460 -66.0925 169° South 443 510 41,000  Level FlightAware Transoceanic
11:58AM 32.3249 -66.0647 169° South 443 510 41,000  Level FlightAware Transoceanic
11:59AM 32.2038 -66.0368 169° South 443 510 41,000  Level FlightAware Transoceanic
12:00PM 32.0826 -66.0091 169° South 443 510 41,000  Level FlightAware Transoceanic
12:01PM 31.9615 -65.9815 169° South 443 510 41,000  Level FlightAware Transoceanic
12:02PM 31.8404 -65.9539 169° South 443 510 41,000  Level FlightAware Transoceanic
12:03PM 31.7193 -65.9264 169° South 443 510 41,000  Level FlightAware Transoceanic
12:04PM 31.5981 -65.8989 169° South 443 510 41,000  Level FlightAware Transoceanic
12:05PM 31.4770 -65.8716 169° South 443 510 41,000  Level FlightAware Transoceanic
12:06PM 31.3558 -65.8443 169° South 443 510 41,000  Level FlightAware Transoceanic
12:07PM 31.2347 -65.8170 169° South 443 510 41,000  Level FlightAware Transoceanic
12:08PM 31.1135 -65.7899 169° South 443 510 41,000  Level FlightAware Transoceanic
12:09PM 30.9923 -65.7628 169° South 443 510 41,000  Level FlightAware Transoceanic
12:10PM 30.8712 -65.7357 169° South 443 510 41,000  Level FlightAware Transoceanic
12:11PM 30.7500 -65.7088 169° South 443 510 41,000  Level FlightAware Transoceanic
12:12PM 30.6288 -65.6819 169° South 443 510 41,000  Level FlightAware Transoceanic
12:13PM 30.5076 -65.6551 169° South 443 510 41,000  Level FlightAware Transoceanic
12:14PM 30.3864 -65.6283 169° South 443 510 41,000  Level FlightAware Transoceanic
12:15PM 30.2652 -65.6016 169° South 443 510 41,000  Level FlightAware Transoceanic
12:16PM 30.1440 -65.5750 169° South 443 510 41,000  Level FlightAware Transoceanic
12:17PM 30.0228 -65.5485 169° South 443 510 41,000  Level FlightAware Transoceanic
12:18PM 29.9016 -65.5220 169° South 443 510 41,000  Level FlightAware Transoceanic
12:19PM 29.7804 -65.4956 169° South 443 510 41,000  Level FlightAware Transoceanic
12:20PM 29.6591 -65.4692 169° South 443 510 41,000  Level FlightAware Transoceanic
12:21PM 29.5379 -65.4429 169° South 443 510 41,000  Level FlightAware Transoceanic
12:22PM 29.4167 -65.4167 169° South 443 510 41,000  Level FlightAware Transoceanic
12:23PM 29.2932 -65.3897 169° South 443 510 41,000  Level FlightAware Transoceanic
12:24PM 29.1697 -65.3628 169° South 443 510 41,000  Level FlightAware Transoceanic
12:25PM 29.0462 -65.3359 169° South 443 510 41,000  Level FlightAware Transoceanic
12:26PM 28.9227 -65.3092 169° South 443 510 41,000  Level FlightAware Transoceanic
12:26PM 29.4167 -65.4167 169° South 452 520 41,000  Level New York Oceanic (ODAPS)
12:27PM 28.7992 -65.2824 169° South 443 510 41,000  Level FlightAware Transoceanic
12:28PM 28.6757 -65.2558 169° South 443 510 41,000  Level FlightAware Transoceanic
12:29PM 28.5521 -65.2292 169° South 443 510 41,000  Level FlightAware Transoceanic
12:30PM 28.4286 -65.2027 169° South 443 510 41,000  Level FlightAware Transoceanic
12:31PM 28.3051 -65.1762 169° South 443 510 41,000  Level FlightAware Transoceanic
12:32PM 28.1815 -65.1498 169° South 443 510 41,000  Level FlightAware Transoceanic
12:33PM 28.1815 -65.1498 169° South 452 520 41,000  Level FlightAware Transoceanic
12:34PM 28.0580 -65.1235 169° South 452 520 41,000  Level FlightAware Transoceanic
12:35PM 27.9345 -65.0972 169° South 452 520 41,000  Level FlightAware Transoceanic
12:36PM 27.8109 -65.0710 169° South 452 520 41,000  Level FlightAware Transoceanic
12:37PM 27.6874 -65.0448 169° South 452 520 41,000  Level FlightAware Transoceanic
12:38PM 27.5638 -65.0187 169° South 452 520 41,000  Level FlightAware Transoceanic
12:39PM 27.4402 -64.9927 169° South 452 520 41,000  Level FlightAware Transoceanic
12:40PM 27.3167 -64.9667 169° South 452 520 41,000  Level FlightAware Transoceanic
12:41PM 27.1953 -64.9407 169° South 452 520 41,000  Level FlightAware Transoceanic
12:42PM 27.0739 -64.9149 169° South 452 520 41,000  Level FlightAware Transoceanic
12:43PM 26.9525 -64.8890 169° South 452 520 41,000  Level FlightAware Transoceanic
12:44PM 26.8311 -64.8633 169° South 452 520 41,000  Level FlightAware Transoceanic
12:45PM 26.7097 -64.8376 169° South 452 520 41,000  Level FlightAware Transoceanic
12:46PM 26.5883 -64.8119 169° South 452 520 41,000  Level FlightAware Transoceanic
12:47PM 26.4669 -64.7863 169° South 452 520 41,000  Level FlightAware Transoceanic
12:48PM 26.3454 -64.7607 169° South 452 520 41,000  Level FlightAware Transoceanic
12:49PM 26.2240 -64.7353 169° South 452 520 41,000  Level FlightAware Transoceanic
12:49PM 27.3167 -64.9667 169° South 471 542 41,000  Level New York Oceanic (ODAPS)
12:50PM 26.1026 -64.7098 169° South 452 520 41,000  Level FlightAware Transoceanic
12:51PM 25.9811 -64.6844 169° South 452 520 41,000  Level FlightAware Transoceanic
12:52PM 25.8597 -64.6591 169° South 452 520 41,000  Level FlightAware Transoceanic
12:53PM 25.7383 -64.6338 169° South 452 520 41,000  Level FlightAware Transoceanic
12:54PM 25.6168 -64.6086 169° South 452 520 41,000  Level FlightAware Transoceanic
12:55PM 25.4954 -64.5834 169° South 452 520 41,000  Level FlightAware Transoceanic
12:56PM 25.3298 -64.5491 169° South 471 542 41,000  Level FlightAware Transoceanic
12:57PM 25.2055 -64.5235 169° South 471 542 41,000  Level FlightAware Transoceanic
12:58PM 25.0813 -64.4979 169° South 471 542 41,000  Level FlightAware Transoceanic
12:59PM 24.9571 -64.4724 169° South 471 542 41,000  Level FlightAware Transoceanic
01:00PM 24.8328 -64.4469 169° South 471 542 41,000  Level FlightAware Transoceanic
01:00PM 25.5167 -64.5833 169° South 442 509 41,000  Level New York Oceanic (ODAPS)
01:01PM 24.7086 -64.4215 169° South 471 542 41,000  Level FlightAware Transoceanic
01:02PM 24.5844 -64.3961 169° South 471 542 41,000  Level FlightAware Transoceanic
01:03PM 24.4601 -64.3708 170° South 471 542 41,000  Level FlightAware Transoceanic
01:04PM 24.3359 -64.3455 170° South 471 542 41,000  Level FlightAware Transoceanic
01:05PM 24.2116 -64.3203 170° South 471 542 41,000  Level FlightAware Transoceanic
01:06PM 24.0874 -64.2952 170° South 471 542 41,000  Level FlightAware Transoceanic
01:07PM 24.0504 -64.2850 170° South 442 509 41,000  Level FlightAware Transoceanic
01:08PM 23.9282 -64.2605 170° South 442 509 41,000  Level FlightAware Transoceanic
01:09PM 23.8060 -64.2360 170° South 442 509 41,000  Level FlightAware Transoceanic
01:10PM 23.6838 -64.2115 170° South 442 509 41,000  Level FlightAware Transoceanic
01:11PM 23.5615 -64.1871 170° South 442 509 41,000  Level FlightAware Transoceanic
01:12PM 23.4393 -64.1628 170° South 442 509 41,000  Level FlightAware Transoceanic
01:13PM 23.3171 -64.1384 170° South 442 509 41,000  Level FlightAware Transoceanic
01:14PM 23.1948 -64.1142 170° South 442 509 41,000  Level FlightAware Transoceanic
01:15PM 23.0726 -64.0899 170° South 442 509 41,000  Level FlightAware Transoceanic
01:16PM 22.9504 -64.0657 170° South 442 509 41,000  Level FlightAware Transoceanic
01:17PM 22.8281 -64.0416 170° South 442 509 41,000  Level FlightAware Transoceanic
01:18PM 22.7059 -64.0175 170° South 442 509 41,000  Level FlightAware Transoceanic
01:19PM 22.5836 -63.9935 170° South 442 509 41,000  Level FlightAware Transoceanic
01:20PM 22.4613 -63.9694 170° South 442 509 41,000  Level FlightAware Transoceanic
01:21PM 22.3391 -63.9455 170° South 442 509 41,000  Level FlightAware Transoceanic
01:21PM 22.8333 -64.0333 170° South 448 516 41,000  Level New York Oceanic (ODAPS)
01:22PM 22.2168 -63.9215 170° South 442 509 41,000  Level FlightAware Transoceanic
01:23PM 22.0945 -63.8977 170° South 442 509 41,000  Level FlightAware Transoceanic
01:24PM 21.9723 -63.8738 170° South 442 509 41,000  Level FlightAware Transoceanic
01:25PM 21.8500 -63.8500 170° South 442 509 41,000  Level FlightAware Transoceanic
01:26PM 21.7308 -63.8265 170° South 442 509 41,000  Level FlightAware Transoceanic
01:26PM 21.8667 -63.8500 170° South 440 506 41,000  Level San Juan Center
01:27PM 21.7308 -63.8265 170° South 448 516 41,000  Level FlightAware Transoceanic
01:27PM 21.7500 -63.8167 165° South 410 472 41,000  Level San Juan Center
01:28PM 21.6115 -63.8031 170° South 448 516 41,000  Level FlightAware Transoceanic
01:28PM 21.6333 -63.8000 172° South 410 472 41,000  Level San Juan Center
01:29PM 21.4923 -63.7797 170° South 448 516 41,000  Level FlightAware Transoceanic
01:29PM 21.5167 -63.7833 172° South 400 460 41,000  Level San Juan Center
01:30PM 21.3731 -63.7563 170° South 448 516 41,000  Level FlightAware Transoceanic
01:30PM 21.4167 -63.7667 171° South 430 495 41,000  Level San Juan Center
01:31PM 21.2539 -63.7330 170° South 448 516 41,000  Level FlightAware Transoceanic
01:32PM 21.1346 -63.7097 170° South 448 516 41,000  Level FlightAware Transoceanic
01:33PM 21.1667 -63.7167 169° South 420 483 41,000  Level San Juan Center
01:34PM 21.0667 -63.6833 163° South 410 472 41,000  Level San Juan Center
01:35PM 20.9522 -63.6592 169° South  Level FlightAware Approximate
01:35PM 20.9333 -63.6667 169° South 450 518 41,000  Level San Juan Center
01:36PM 20.8333 -63.6500 171° South 390 449 41,000  Level San Juan Center
01:37PM 20.7167 -63.6167 165° South 420 483 41,000  Level San Juan Center
01:38PM 20.6000 -63.6000 172° South 400 460 41,000 -180 Level San Juan Center
01:39PM 20.4833 -63.5833 172° South 420 483 40,700 -1,080 Descending San Juan Center
01:40PM 20.3500 -63.5500 167° South 430 495 38,900 -1,560 Descending San Juan Center
01:41PM 20.2333 -63.5167 165° South 440 506 37,600 -1,260 Descending San Juan Center
01:42PM 20.1000 -63.5000 173° South 440 506 36,400 -1,200 Descending San Juan Center
01:43PM 19.9833 -63.4667 165° South 450 518 35,200 -1,260 Descending San Juan Center
01:44PM 19.8500 -63.4500 173° South 450 518 33,900 -1,260 Descending San Juan Center
01:45PM 19.7333 -63.4333 172° South 450 518 32,700 -1,860 Descending San Juan Center
01:46PM 19.6000 -63.4000 167° South 450 518 30,200 -2,520 Descending San Juan Center
01:47PM 19.4833 -63.3833 172° South 460 529 27,700 -2,460 Descending San Juan Center
01:48PM 19.3500 -63.3500 167° South 460 529 25,300 -2,400 Descending San Juan Center
01:49PM 19.2333 -63.3333 172° South 440 506 22,900 -2,280 Descending San Juan Center
01:50PM 19.1167 -63.3167 172° South 430 495 20,800 -2,160 Descending San Juan Center
01:51PM 19.0000 -63.2833 165° South 410 472 18,600 -2,040 Descending San Juan Center
01:52PM 18.9000 -63.2667 171° South 400 460 16,800 -1,980 Descending San Juan Center
01:53PM 18.7667 -63.2500 173° South 380 437 14,200 -2,100 Descending San Juan Center
01:55PM 18.5796 -63.2113 175° South  Level FlightAware Approximate
02:02PM 18.2000 -63.0500 18° North  Level FlightAware Approximate
02:03PM 18.2048 -63.0551 18° North  Level Estimated
02:04PM 18.2000 -63.0500 18° North  Level FlightAware Approximate
02:05PM 18.2048 -63.0551 18° North  Level Estimated
02:06PM 18.2000 -63.0500 18° North  Level FlightAware Approximate
02:07PM 18.2048 -63.0551 18° North  Level Estimated
02:08PM 18.2000 -63.0500 18° North  Level FlightAware Approximate
02:09PM 18.2048 -63.0551 18° North  Level Estimated
02:10PM 18.2000 -63.0500 18° North  Level FlightAware Approximate
02:11PM 18.2048 -63.0551 18° North  Level Estimated
02:12PM 18.2000 -63.0500 18° North  Level FlightAware Approximate
02:13PM 18.2048 -63.0551 18° North  Level Estimated
02:14PM 18.2000 -63.0500 18° North  Level FlightAware Approximate
02:15PM 18.2048 -63.0551 18° North  Level Estimated
02:16PM 18.2000 -63.0500 18° North  Level FlightAware Approximate